createdAt,value
2017-08-24T00:02:28.486Z,17.20
2017-08-24T00:04:57.949Z,17.10
2017-08-24T00:07:27.202Z,17.20
2017-08-24T00:09:56.499Z,17.20
2017-08-24T00:12:25.785Z,17.20
2017-08-24T00:14:55.141Z,17.30
2017-08-24T00:17:24.389Z,17.20
2017-08-24T00:19:53.677Z,17.30
2017-08-24T00:22:22.928Z,17.20
2017-08-24T00:24:52.184Z,17.20
2017-08-24T00:27:21.482Z,17.20
2017-08-24T00:29:51.246Z,17.20
2017-08-24T00:32:20.535Z,17.20
2017-08-24T00:34:49.791Z,17.30
2017-08-24T00:37:19.056Z,17.30
2017-08-24T00:39:48.333Z,17.40
2017-08-24T00:42:17.636Z,17.50
2017-08-24T00:44:48.526Z,17.60
2017-08-24T00:47:17.883Z,17.60
2017-08-24T00:49:47.163Z,17.60
2017-08-24T00:52:16.413Z,17.70
2017-08-24T00:54:45.681Z,17.80
2017-08-24T00:57:15.065Z,17.80
2017-08-24T00:59:44.306Z,17.90
2017-08-24T01:02:13.575Z,17.90
2017-08-24T01:04:42.984Z,17.90
2017-08-24T01:07:12.249Z,17.90
2017-08-24T01:09:41.765Z,17.90
2017-08-24T01:12:11.006Z,17.90
2017-08-24T01:14:40.287Z,17.90
2017-08-24T01:17:09.538Z,17.90
2017-08-24T01:19:38.844Z,17.80
2017-08-24T01:22:08.303Z,17.80
2017-08-24T01:24:37.560Z,17.80
2017-08-24T01:27:06.902Z,17.80
2017-08-24T01:29:36.171Z,17.80
2017-08-24T01:32:05.438Z,17.80
2017-08-24T01:34:34.711Z,17.80
2017-08-24T01:37:04.093Z,17.80
2017-08-24T01:39:33.344Z,17.70
2017-08-24T01:42:02.606Z,17.70
2017-08-24T01:44:31.902Z,17.70
2017-08-24T01:47:01.142Z,17.70
2017-08-24T01:49:30.411Z,17.60
2017-08-24T01:51:59.681Z,17.60
2017-08-24T01:54:29.798Z,17.50
2017-08-24T01:56:59.037Z,17.50
2017-08-24T01:59:29.062Z,17.50
2017-08-24T02:01:58.361Z,17.50
2017-08-24T02:04:27.829Z,17.40
2017-08-24T02:06:57.298Z,17.30
2017-08-24T02:09:26.566Z,17.30
2017-08-24T02:11:55.961Z,17.30
2017-08-24T02:14:25.219Z,17.30
2017-08-24T02:16:54.789Z,17.30
2017-08-24T02:19:24.866Z,17.40
2017-08-24T02:21:54.143Z,17.40
2017-08-24T02:24:23.582Z,17.40
2017-08-24T02:26:53.831Z,17.40
2017-08-24T02:29:23.088Z,17.40
2017-08-24T02:31:52.354Z,17.40
2017-08-24T02:34:21.637Z,17.50
2017-08-24T02:36:50.907Z,17.60
2017-08-24T02:39:20.175Z,17.70
2017-08-24T02:41:49.480Z,17.70
2017-08-24T02:44:18.741Z,17.70
2017-08-24T02:46:48.020Z,17.70
2017-08-24T02:49:17.297Z,17.70
2017-08-24T02:51:46.586Z,17.70
2017-08-24T02:54:15.897Z,17.80
2017-08-24T02:56:45.148Z,17.80
2017-08-24T02:59:14.402Z,17.80
2017-08-24T03:01:43.646Z,17.90
2017-08-24T03:04:12.912Z,17.90
2017-08-24T03:06:42.436Z,18.00
2017-08-24T03:09:11.699Z,18.00
2017-08-24T03:11:40.994Z,18.10
2017-08-24T03:14:10.290Z,18.10
2017-08-24T03:16:39.590Z,18.10
2017-08-24T03:19:08.827Z,18.10
2017-08-24T03:21:38.231Z,18.10
2017-08-24T03:24:08.247Z,18.20
2017-08-24T03:26:37.509Z,18.20
2017-08-24T03:29:06.804Z,18.10
2017-08-24T03:31:36.243Z,18.10
2017-08-24T03:34:05.589Z,18.10
2017-08-24T03:36:35.604Z,18.00
2017-08-24T03:39:04.891Z,18.00
2017-08-24T03:41:35.060Z,18.10
2017-08-24T03:44:04.314Z,18.10
2017-08-24T03:46:33.674Z,18.10
2017-08-24T03:49:02.927Z,18.10
2017-08-24T03:51:32.226Z,18.00
2017-08-24T03:54:01.505Z,18.10
2017-08-24T03:56:30.766Z,18.10
2017-08-24T03:59:00.016Z,18.10
2017-08-24T04:01:29.423Z,18.00
2017-08-24T04:03:58.658Z,18.00
2017-08-24T04:06:27.916Z,18.00
2017-08-24T04:08:57.195Z,18.00
2017-08-24T04:11:26.460Z,18.10
2017-08-24T04:13:55.761Z,18.10
2017-08-24T04:16:25.013Z,18.10
2017-08-24T04:18:54.273Z,18.10
2017-08-24T04:21:23.553Z,18.10
2017-08-24T04:23:52.815Z,18.10
2017-08-24T04:26:22.074Z,18.10
2017-08-24T04:28:51.346Z,18.10
2017-08-24T04:31:20.865Z,18.20
2017-08-24T04:33:50.366Z,18.20
2017-08-24T04:36:19.920Z,18.20
2017-08-24T04:38:49.132Z,18.30
2017-08-24T04:41:18.660Z,18.30
2017-08-24T04:43:48.146Z,18.30
2017-08-24T04:46:17.545Z,18.40
2017-08-24T04:48:46.846Z,18.40
2017-08-24T04:51:16.103Z,18.50
2017-08-24T04:53:45.356Z,18.50
2017-08-24T04:56:14.684Z,18.60
2017-08-24T04:58:43.945Z,18.60
2017-08-24T05:01:13.311Z,18.60
2017-08-24T05:03:42.552Z,18.70
2017-08-24T05:06:11.845Z,18.60
2017-08-24T05:08:41.085Z,18.70
2017-08-24T05:11:10.349Z,18.70
2017-08-24T05:13:39.649Z,18.80
2017-08-24T05:16:08.895Z,18.90
2017-08-24T05:18:38.210Z,19.00
2017-08-24T05:21:07.572Z,19.10
2017-08-24T05:23:36.873Z,19.10
2017-08-24T05:26:07.218Z,19.20
2017-08-24T05:28:36.485Z,19.20
2017-08-24T05:31:05.815Z,19.20
2017-08-24T05:33:35.089Z,19.40
2017-08-24T05:36:04.364Z,19.50
2017-08-24T05:38:34.470Z,19.60
2017-08-24T05:41:03.744Z,19.60
2017-08-24T05:43:32.994Z,19.80
2017-08-24T05:46:02.258Z,19.80
2017-08-24T05:48:31.519Z,19.90
2017-08-24T05:51:00.764Z,20.00
2017-08-24T05:53:30.046Z,20.00
2017-08-24T05:55:59.293Z,20.20
2017-08-24T05:58:28.569Z,20.30
2017-08-24T06:00:57.862Z,20.50
2017-08-24T06:03:27.129Z,20.70
2017-08-24T06:05:56.391Z,20.90
2017-08-24T06:08:25.891Z,20.90
2017-08-24T06:10:55.145Z,20.90
2017-08-24T06:13:24.494Z,21.00
2017-08-24T06:15:53.772Z,21.10
2017-08-24T06:18:23.020Z,21.40
2017-08-24T06:20:52.283Z,21.60
2017-08-24T06:23:21.686Z,21.70
2017-08-24T06:25:51.194Z,21.90
2017-08-24T06:28:20.490Z,22.00
2017-08-24T06:30:49.735Z,22.30
2017-08-24T06:33:19.039Z,22.90
2017-08-24T06:35:48.310Z,23.50
2017-08-24T06:38:17.581Z,23.60
2017-08-24T06:40:46.844Z,23.60
2017-08-24T06:43:16.122Z,23.60
2017-08-24T06:45:45.394Z,23.70
2017-08-24T06:48:14.641Z,23.90
2017-08-24T06:50:43.909Z,24.20
2017-08-24T06:53:13.181Z,24.40
2017-08-24T06:55:42.476Z,24.30
2017-08-24T06:58:11.921Z,24.40
2017-08-24T07:00:41.238Z,23.90
2017-08-24T07:03:10.745Z,24.00
2017-08-24T07:05:40.044Z,24.00
2017-08-24T07:08:09.529Z,24.10
2017-08-24T07:10:39.786Z,23.90
2017-08-24T07:13:09.051Z,23.90
2017-08-24T07:15:38.912Z,24.20
2017-08-24T07:18:09.191Z,24.10
2017-08-24T07:20:39.238Z,24.00
2017-08-24T07:23:08.535Z,23.80
2017-08-24T07:25:37.979Z,23.80
2017-08-24T07:28:07.423Z,23.90
2017-08-24T07:30:36.840Z,24.20
2017-08-24T07:33:06.133Z,24.50
2017-08-24T07:35:35.447Z,24.50
2017-08-24T07:38:04.756Z,24.40
2017-08-24T07:40:34.027Z,24.10
2017-08-24T07:43:03.305Z,24.10
2017-08-24T07:45:32.625Z,23.90
2017-08-24T07:48:01.903Z,23.90
2017-08-24T07:50:31.182Z,24.10
2017-08-24T07:53:00.439Z,24.10
2017-08-24T07:55:29.701Z,23.80
2017-08-24T07:57:59.365Z,23.80
2017-08-24T08:00:28.661Z,24.10
2017-08-24T08:02:57.917Z,24.30
2017-08-24T08:05:27.198Z,24.50
2017-08-24T08:07:56.468Z,24.40
2017-08-24T08:10:25.765Z,24.00
2017-08-24T08:12:55.395Z,23.90
2017-08-24T08:15:24.637Z,23.80
2017-08-24T08:17:54.172Z,23.90
2017-08-24T08:20:23.474Z,23.70
2017-08-24T08:22:52.765Z,23.90
2017-08-24T08:25:22.024Z,23.70
2017-08-24T08:27:51.273Z,23.60
2017-08-24T08:30:20.534Z,23.60
2017-08-24T08:32:50.582Z,23.50
2017-08-24T08:35:20.600Z,24.00
2017-08-24T08:37:50.015Z,24.00
2017-08-24T08:40:19.615Z,24.40
2017-08-24T08:42:48.890Z,24.60
2017-08-24T08:45:18.142Z,24.80
2017-08-24T08:47:47.409Z,25.00
2017-08-24T08:50:17.293Z,25.50
2017-08-24T08:52:46.542Z,26.00
2017-08-24T08:55:15.825Z,26.40
2017-08-24T08:57:45.085Z,26.80
2017-08-24T09:00:14.482Z,27.50
2017-08-24T09:02:43.734Z,28.20
2017-08-24T09:05:13.001Z,28.80
2017-08-24T09:07:42.270Z,28.90
2017-08-24T09:10:11.520Z,29.10
2017-08-24T09:12:40.786Z,29.30
2017-08-24T09:15:10.388Z,29.60
2017-08-24T09:17:39.849Z,29.40
2017-08-24T09:20:09.126Z,30.10
2017-08-24T09:22:38.532Z,29.80
2017-08-24T09:25:07.762Z,29.80
2017-08-24T09:27:37.006Z,29.90
2017-08-24T09:30:06.314Z,29.90
2017-08-24T09:32:35.552Z,30.10
2017-08-24T09:35:04.835Z,30.70
2017-08-24T09:37:34.379Z,31.00
2017-08-24T09:40:03.795Z,30.90
2017-08-24T09:42:33.050Z,31.00
2017-08-24T09:45:02.326Z,31.80
2017-08-24T09:47:31.698Z,32.10
2017-08-24T09:50:00.962Z,31.40
2017-08-24T09:52:30.203Z,32.20
2017-08-24T09:54:59.450Z,33.40
2017-08-24T09:57:28.711Z,34.20
2017-08-24T09:59:58.197Z,34.50
2017-08-24T10:02:27.554Z,34.50
2017-08-24T10:04:57.026Z,32.80
2017-08-24T10:07:26.263Z,31.40
2017-08-24T10:09:55.534Z,31.50
2017-08-24T10:12:24.777Z,30.40
2017-08-24T10:14:54.053Z,30.50
2017-08-24T10:17:23.322Z,30.10
2017-08-24T10:19:52.606Z,30.30
2017-08-24T10:22:21.852Z,30.00
2017-08-24T10:24:51.110Z,29.80
2017-08-24T10:27:20.677Z,30.20
2017-08-24T10:29:50.017Z,30.10
2017-08-24T10:32:19.264Z,30.10
2017-08-24T10:34:48.529Z,29.60
2017-08-24T10:37:17.784Z,29.40
2017-08-24T10:39:47.070Z,30.00
2017-08-24T10:42:16.341Z,29.70
2017-08-24T10:44:45.713Z,28.90
2017-08-24T10:47:14.962Z,28.50
2017-08-24T10:49:44.717Z,27.90
2017-08-24T10:52:13.998Z,27.80
2017-08-24T10:54:43.251Z,28.40
2017-08-24T10:57:12.579Z,28.70
2017-08-24T10:59:42.013Z,28.70
2017-08-24T11:02:11.268Z,28.10
2017-08-24T11:04:41.237Z,28.10
2017-08-24T11:07:10.667Z,28.40
2017-08-24T11:09:39.924Z,28.50
2017-08-24T11:12:09.431Z,28.40
2017-08-24T11:14:38.898Z,28.70
2017-08-24T11:17:08.170Z,29.10
2017-08-24T11:19:37.516Z,29.30
2017-08-24T11:22:06.783Z,29.30
2017-08-24T11:24:36.046Z,28.90
2017-08-24T11:27:05.360Z,28.60
2017-08-24T11:29:34.617Z,28.20
2017-08-24T11:32:03.890Z,28.30
2017-08-24T11:34:33.281Z,27.50
2017-08-24T11:37:02.561Z,27.70
2017-08-24T11:39:31.801Z,27.60
2017-08-24T11:42:01.359Z,27.80
2017-08-24T11:44:30.606Z,27.80
2017-08-24T11:46:59.878Z,27.80
2017-08-24T11:49:29.166Z,28.00
2017-08-24T11:51:58.410Z,28.10
2017-08-24T11:54:27.652Z,28.10
2017-08-24T11:56:56.929Z,28.20
2017-08-24T11:59:26.297Z,28.10
2017-08-24T12:01:55.569Z,27.60
2017-08-24T12:04:24.824Z,27.80
2017-08-24T12:06:54.204Z,27.90
2017-08-24T12:09:23.459Z,27.80
2017-08-24T12:11:53.026Z,27.80
2017-08-24T12:14:22.278Z,27.50
2017-08-24T12:16:51.538Z,27.20
2017-08-24T12:19:21.020Z,27.00
2017-08-24T12:21:50.511Z,27.10
2017-08-24T12:24:19.838Z,27.30
2017-08-24T12:26:49.122Z,27.30
2017-08-24T12:29:18.386Z,27.10
2017-08-24T12:31:47.658Z,27.30
2017-08-24T12:34:16.920Z,27.40
2017-08-24T12:36:46.482Z,27.70
2017-08-24T12:39:15.741Z,27.60
2017-08-24T12:41:44.985Z,27.60
2017-08-24T12:44:14.321Z,27.50
2017-08-24T12:46:43.591Z,27.30
2017-08-24T12:49:12.874Z,26.80
2017-08-24T12:51:42.136Z,26.90
2017-08-24T12:54:11.380Z,26.80
2017-08-24T12:56:40.718Z,26.80
2017-08-24T12:59:09.978Z,27.00
2017-08-24T13:01:39.229Z,27.10
2017-08-24T13:04:08.522Z,27.30
2017-08-24T13:06:37.797Z,27.40
2017-08-24T13:09:07.079Z,27.40
2017-08-24T13:11:36.459Z,27.40
2017-08-24T13:14:05.810Z,27.10
2017-08-24T13:16:35.262Z,26.90
2017-08-24T13:19:04.518Z,26.90
2017-08-24T13:21:34.018Z,26.90
2017-08-24T13:24:03.282Z,26.90
2017-08-24T13:26:32.753Z,27.00
2017-08-24T13:29:02.045Z,27.10
2017-08-24T13:31:31.443Z,26.80
2017-08-24T13:34:00.699Z,26.50
2017-08-24T13:36:30.072Z,26.20
2017-08-24T13:38:59.996Z,26.20
2017-08-24T13:41:29.391Z,25.70
2017-08-24T13:43:58.649Z,25.80
2017-08-24T13:46:27.937Z,26.10
2017-08-24T13:48:57.291Z,26.20
2017-08-24T13:51:26.602Z,26.30
2017-08-24T13:53:55.856Z,26.50
2017-08-24T13:56:25.123Z,26.40
2017-08-24T13:58:54.546Z,26.40
2017-08-24T14:01:24.025Z,26.30
2017-08-24T14:03:54.451Z,26.40
2017-08-24T14:06:23.692Z,26.40
2017-08-24T14:08:53.398Z,26.40
2017-08-24T14:11:22.672Z,26.30
2017-08-24T14:13:55.869Z,26.20
2017-08-24T14:16:25.679Z,26.40
2017-08-24T14:18:55.159Z,26.40
2017-08-24T14:21:24.488Z,26.40
2017-08-24T14:23:53.752Z,26.50
2017-08-24T14:26:23.014Z,26.30
2017-08-24T14:28:53.663Z,26.40
2017-08-24T14:31:23.650Z,26.40
2017-08-24T14:33:53.150Z,26.60
2017-08-24T14:36:22.426Z,26.60
2017-08-24T14:38:52.041Z,26.60
2017-08-24T14:41:22.148Z,26.50
2017-08-24T14:43:51.386Z,26.40
2017-08-24T14:46:20.688Z,26.40
2017-08-24T14:48:50.007Z,26.30
2017-08-24T14:51:19.351Z,26.30
2017-08-24T14:53:48.875Z,26.30
2017-08-24T14:56:18.379Z,26.30
2017-08-24T14:58:47.705Z,26.40
2017-08-24T15:01:17.009Z,26.40
2017-08-24T15:03:46.306Z,26.60
2017-08-24T15:06:15.760Z,26.50
2017-08-24T15:08:45.198Z,26.60
2017-08-24T15:11:14.719Z,26.60
2017-08-24T15:13:44.538Z,26.80
2017-08-24T15:16:15.550Z,26.60
2017-08-24T15:18:44.957Z,26.50
2017-08-24T15:21:14.599Z,26.40
2017-08-24T15:23:45.257Z,26.50
2017-08-24T15:26:15.086Z,26.40
2017-08-24T15:28:45.638Z,26.30
2017-08-24T15:31:15.219Z,26.20
2017-08-24T15:33:44.606Z,26.00
2017-08-24T15:36:13.962Z,25.90
2017-08-24T15:38:43.163Z,25.80
2017-08-24T15:41:13.148Z,25.70
2017-08-24T15:43:42.559Z,25.60
2017-08-24T15:46:11.860Z,25.60
2017-08-24T15:48:41.139Z,25.60
2017-08-24T15:51:10.759Z,25.50
2017-08-24T15:53:40.132Z,25.60
2017-08-24T15:56:09.453Z,25.70
2017-08-24T15:58:38.758Z,25.90
2017-08-24T16:01:08.109Z,26.00
2017-08-24T16:03:37.551Z,26.00
2017-08-24T16:06:06.888Z,26.00
2017-08-24T16:08:36.312Z,26.00
2017-08-24T17:58:46.602Z,20.40
2017-08-24T18:01:16.355Z,20.40
2017-08-24T18:03:45.645Z,20.30
2017-08-24T18:06:14.993Z,20.20
2017-08-24T18:08:45.165Z,20.10
2017-08-24T18:11:14.420Z,20.10
2017-08-24T18:13:43.692Z,19.90
2017-08-24T18:16:12.950Z,19.70
2017-08-24T18:18:42.454Z,19.40
2017-08-24T18:21:12.545Z,19.10
2017-08-24T18:23:41.854Z,19.00
2017-08-24T18:26:11.135Z,19.00
2017-08-24T18:28:40.550Z,18.90
2017-08-24T18:31:09.916Z,18.90
2017-08-24T18:33:39.185Z,18.80
2017-08-24T18:36:08.635Z,18.70
2017-08-24T18:38:37.893Z,18.70
2017-08-24T18:41:07.975Z,18.50
2017-08-24T18:43:37.335Z,18.50
2017-08-24T18:46:06.606Z,18.40
2017-08-24T18:48:36.670Z,18.30
2017-08-24T18:51:05.929Z,18.30
2017-08-24T18:56:10.699Z,18.10
2017-08-24T18:58:40.837Z,18.00
2017-08-24T19:01:10.220Z,18.00
2017-08-24T19:03:39.480Z,17.90
2017-08-24T19:06:08.746Z,17.90
2017-08-24T19:08:38.270Z,17.90
2017-08-24T19:11:07.714Z,17.90
2017-08-24T19:13:37.019Z,17.80
2017-08-24T19:16:06.324Z,17.80
2017-08-24T19:18:35.694Z,17.70
2017-08-24T19:21:04.946Z,17.70
2017-08-24T19:23:34.214Z,17.60
2017-08-24T19:26:03.519Z,17.60
2017-08-24T19:28:33.597Z,17.50
2017-08-24T19:31:02.955Z,17.40
2017-08-24T19:33:33.013Z,17.40
2017-08-24T19:36:02.259Z,17.40
2017-08-24T19:38:31.502Z,17.30
2017-08-24T19:41:00.774Z,17.30
2017-08-24T19:43:30.110Z,17.30
2017-08-24T19:45:59.399Z,17.30
2017-08-24T19:48:28.822Z,17.10
2017-08-24T19:50:58.190Z,16.90
2017-08-24T19:53:27.454Z,16.80
2017-08-24T19:55:56.724Z,16.80
2017-08-24T19:58:26.088Z,16.70
2017-08-24T20:00:55.419Z,16.70
2017-08-24T20:03:24.655Z,16.70
2017-08-24T20:05:53.982Z,16.70
2017-08-24T20:08:23.230Z,16.70
2017-08-24T20:10:53.260Z,16.70
2017-08-24T20:13:22.807Z,16.70
2017-08-24T20:15:52.112Z,16.70
2017-08-24T20:18:21.349Z,16.70
2017-08-24T20:20:50.753Z,16.60
2017-08-24T20:23:20.018Z,16.60
2017-08-24T20:25:49.347Z,16.60
2017-08-24T20:28:18.684Z,16.60
2017-08-24T20:30:48.397Z,16.50
2017-08-24T20:33:17.770Z,16.50
2017-08-24T20:35:47.686Z,16.60
2017-08-24T20:38:17.062Z,16.60
2017-08-24T20:40:46.317Z,16.60
2017-08-24T20:43:15.622Z,16.50
2017-08-24T20:45:45.633Z,16.40
2017-08-24T20:48:15.070Z,16.40
2017-08-24T20:50:44.378Z,16.30
2017-08-24T20:53:14.634Z,16.20
2017-08-24T20:55:43.999Z,16.20
2017-08-24T20:58:13.252Z,16.20
2017-08-24T21:00:42.598Z,16.20
2017-08-24T21:03:12.138Z,16.10
2017-08-24T21:05:41.549Z,16.10
2017-08-24T21:08:11.008Z,16.20
2017-08-24T21:10:40.458Z,16.00
2017-08-24T21:13:10.394Z,16.00
2017-08-24T21:15:39.949Z,16.00
2017-08-24T21:18:10.824Z,16.00
2017-08-24T21:20:40.365Z,16.00
2017-08-24T21:23:09.854Z,16.00
2017-08-24T21:25:39.066Z,16.00
2017-08-24T21:28:08.334Z,16.00
2017-08-24T21:30:37.586Z,15.90
2017-08-24T21:33:06.851Z,15.90
2017-08-24T21:35:36.161Z,15.80
2017-08-24T21:38:05.506Z,15.70
2017-08-24T21:40:35.146Z,15.80
2017-08-24T21:43:04.486Z,15.70
2017-08-24T21:45:33.751Z,15.70
2017-08-24T21:48:03.026Z,15.70
2017-08-24T21:50:32.378Z,15.70
2017-08-24T21:53:01.722Z,15.80
2017-08-24T21:55:31.005Z,15.70
2017-08-24T21:58:00.301Z,15.80
2017-08-24T22:00:29.601Z,15.80
2017-08-24T22:02:58.929Z,15.90
2017-08-24T22:05:28.201Z,15.90
2017-08-24T22:07:57.469Z,15.90
2017-08-24T22:10:26.730Z,16.00
2017-08-24T22:12:56.008Z,16.00
2017-08-24T22:15:25.279Z,15.90
2017-08-24T22:17:54.537Z,16.00
2017-08-24T22:20:23.809Z,16.00
2017-08-24T22:22:53.073Z,15.80
2017-08-24T22:25:22.328Z,15.80
2017-08-24T22:27:51.606Z,15.80
2017-08-24T22:30:20.881Z,15.80
2017-08-24T22:32:50.180Z,15.60
2017-08-24T22:35:19.423Z,15.60
2017-08-24T22:37:48.702Z,15.70
2017-08-24T22:40:18.098Z,15.70
2017-08-24T22:42:47.510Z,15.70
2017-08-24T22:45:17.570Z,15.70
2017-08-24T22:47:46.844Z,15.70
2017-08-24T22:50:16.119Z,15.70
2017-08-24T22:52:45.358Z,15.80
2017-08-24T22:55:20.172Z,15.70
2017-08-24T22:57:54.903Z,15.70
2017-08-24T23:00:29.715Z,15.70
2017-08-24T23:06:02.862Z,15.70
2017-08-24T23:08:32.151Z,15.70
2017-08-24T23:11:01.390Z,15.60
2017-08-24T23:13:30.858Z,15.60
2017-08-24T23:16:00.158Z,15.70
2017-08-24T23:18:29.386Z,15.70
2017-08-24T23:20:58.627Z,15.70
2017-08-24T23:23:27.913Z,15.70
2017-08-24T23:25:57.183Z,15.70
2017-08-24T23:28:26.523Z,15.70
2017-08-24T23:30:55.769Z,15.80
2017-08-24T23:33:25.047Z,15.80
2017-08-24T23:35:54.290Z,15.80
2017-08-24T23:38:23.583Z,15.80
2017-08-24T23:40:52.858Z,15.80
2017-08-24T23:43:22.122Z,15.90
2017-08-24T23:45:51.397Z,15.90
2017-08-24T23:48:20.794Z,16.00
2017-08-24T23:50:50.030Z,16.00
2017-08-24T23:53:19.446Z,16.00
2017-08-24T23:55:48.693Z,16.00
2017-08-24T23:58:17.956Z,16.00
